Anahola, Hawaii
Current Conditions -  °F | °C
As of 12:00 PM on Wednesday 22 Oct 2014 (Local Time) from PHLI Reporting Station
Broken Clouds Broken Clouds  
Wind Chill: 84°   Ceiling: 1600
Heat Index: 92°   Visibility: 10mi
Dew Point: 75°   Wind: 12mph
Humidity: 74%   Direction: 90°E
Pressure: 30.02"   Gusts: NA
Location:  22.14°N, 159.31°W
Report Text: PHLI 222200Z 09010KT 10SM BKN016 29/24 A3002 RMK AO2
Loading
Personal Weather Stations






























Interactive Weather Map
Tropical Storm Tracking
New forecast layout! Learn more

10-Day Weather Forecast

Advertisements
Track Severe Weather on mobile